AI7R Weather Reports


time (UTC)temp
F
wind
direction
speed
knots
gust
knots
rain 1hr
in
rain 24hr
in
rain mn
in
humidity
%
barometer
mb
20190526034519 57 72 0.9 2.6 0.00 0.00 0.00 29 1007.3
20190526033023 57 0 0.0 0.0 0.00 0.00 0.00 28 1007.3
20190526031518 58 0 0.0 0.9 0.00 0.00 0.00 27 1007.4
20190526030038 59 0 0.0 1.7 0.00 0.00 0.00 27 1007.4
20190526024518 60 0 0.0 0.9 0.00 0.00 0.00 26 1007.5
20190526023023 61 172 0.9 3.5 0.00 0.00 0.00 24 1007.4
20190526021518 62 160 0.9 6.1 0.00 0.00 0.00 23 1007.5
20190526020024 63 179 3.5 7.8 0.00 0.00 0.00 21 1007.5
20190526014518 64 175 4.3 9.6 0.00 0.00 0.00 20 1007.4
20190526013023 65 169 2.6 8.7 0.00 0.00 0.00 21 1007.4
20190526011518 66 169 4.3 11.3 0.00 0.00 0.00 19 1007.4
20190526010037 67 155 3.5 10.4 0.00 0.00 0.00 19 1006.6
20190526004518 68 164 5.2 10.4 0.00 0.00 0.00 19 1006.6
20190526003024 68 174 5.2 13.9 0.00 0.00 0.00 17 1006.8
20190526001522 69 158 4.3 15.6 0.00 0.00 0.00 18 1006.8
20190526000024 69 171 5.2 13.9 0.00 0.00 0.00 18 1006.9
20190525234518 69 145 4.3 13.9 0.00 0.00 0.00 19 1006.8
20190525233024 69 164 3.5 9.6 0.00 0.00 0.00 18 1007.0
20190525231518 70 195 4.3 11.3 0.00 0.00 0.00 15 1007.0
20190525230023 70 185 4.3 13.9 0.00 0.00 0.00 17 1007.2
20190525224518 70 174 7.8 17.4 0.00 0.00 0.00 19 1007.1
20190525221518 70 137 3.5 9.6 0.00 0.00 0.00 21 1007.6
20190525220035 70 159 7.8 13.9 0.00 0.00 0.00 21 1007.7
20190525214518 69 133 7.8 13.9 0.00 0.00 0.00 22 1007.5
20190525213024 70 146 4.3 13.9 0.00 0.00 0.00 21 1007.9
20190525211518 70 187 6.1 13.9 0.00 0.00 0.00 20 1008.2
20190525210023 69 168 5.2 10.4 0.00 0.00 0.00 23 1008.2
20190525204518 69 177 6.1 13.0 0.00 0.00 0.00 21 1008.4
20190525203023 69 136 5.2 12.2 0.00 0.00 0.00 20 1008.4
20190525201518 68 164 4.3 12.2 0.00 0.00 0.00 20 1008.6
20190525194519 69 179 4.3 11.3 0.00 0.00 0.00 21 1008.4
20190525193023 68 158 7.0 11.3 0.00 0.00 0.00 22 1008.6
20190525191518 67 213 6.1 17.4 0.00 0.00 0.00 22 1008.7
20190525190023 67 151 7.0 15.6 0.00 0.00 0.00 21 1008.9
20190525184522 67 174 6.1 13.0 0.00 0.00 0.00 21 1008.9
20190525183023 67 147 5.2 13.0 0.00 0.00 0.00 24 1009.0
20190525181519 67 153 4.3 13.0 0.00 0.00 0.00 24 1009.2
20190525180031 66 137 5.2 15.6 0.00 0.00 0.00 25 1009.2
20190525174519 66 132 6.1 12.2 0.00 0.00 0.00 24 1009.2
20190525173023 65 138 9.6 19.1 0.00 0.00 0.00 24 1009.4
20190525171518 65 141 3.5 9.6 0.00 0.00 0.00 26 1009.4
20190525163023 63 162 3.5 8.7 0.00 0.00 0.00 28 1009.3
20190525161518 63 168 4.3 9.6 0.00 0.00 0.00 27 1009.2
20190525160022 62 163 4.3 7.0 0.00 0.00 0.00 28 1008.5
20190525154518 61 135 1.7 5.2 0.00 0.00 0.00 29 1008.4
20190525153023 60 147 1.7 7.0 0.00 0.00 0.00 32 1008.6
20190525151518 59 0 0.0 3.5 0.00 0.00 0.00 33 1008.7
20190525150023 58 132 0.9 4.3 0.00 0.00 0.00 33 1008.6
20190525143023 56 0 0.0 3.5 0.00 0.00 0.00 34 1008.6
20190525141517 56 0 0.0 2.6 0.00 0.00 0.00 33 1008.5
20190525140022 55 0 0.0 3.5 0.00 0.00 0.00 33 1008.6
20190525134517 53 52 0.9 3.5 0.00 0.00 0.00 32 1008.5
20190525133022 51 53 0.9 5.2 0.00 0.00 0.00 32 1008.6
20190525131518 50 40 1.7 4.3 0.00 0.00 0.00 36 1008.6
20190525130022 49 36 1.7 3.5 0.00 0.00 0.00 36 1008.5
20190525124517 49 29 1.7 3.5 0.00 0.00 0.00 35 1008.3
20190525123022 49 26 1.7 2.6 0.00 0.00 0.00 34 1008.2
20190525121518 49 26 1.7 3.5 0.00 0.00 0.00 34 1008.1
20190525114518 49 23 1.7 2.6 0.00 0.00 0.00 35 1007.9
20190525113022 49 23 0.9 2.6 0.00 0.00 0.00 35 1008.0
20190525111517 50 23 1.7 3.5 0.00 0.00 0.00 34 1007.9
20190525101517 51 0 0.0 1.7 0.00 0.00 0.00 32 1007.1
20190525100022 51 345 0.9 1.7 0.00 0.00 0.00 32 1007.2
20190525094518 51 344 0.9 1.7 0.00 0.00 0.00 31 1007.3
20190525093022 51 0 0.0 0.0 0.00 0.00 0.00 30 1007.4
20190525091517 51 0 0.0 0.0 0.00 0.00 0.00 30 1007.6
20190525090022 50 0 0.0 1.7 0.00 0.00 0.00 31 1007.6
20190525084518 50 0 0.0 1.7 0.00 0.00 0.00 29 1007.7
20190525083022 51 0 0.0 0.9 0.00 0.00 0.00 27 1007.8
20190525080022 50 344 0.9 1.7 0.00 0.00 0.00 27 1007.9
20190525074517 50 0 0.0 0.9 0.00 0.00 0.00 26 1007.9
20190525073022 50 0 0.0 1.7 0.00 0.00 0.00 27 1008.0
20190525071517 50 0 0.0 1.7 0.00 0.00 0.00 28 1008.1
20190525070022 50 0 0.0 1.7 0.00 0.00 0.00 28 1008.2
20190525064518 50 0 0.0 1.7 0.00 0.00 0.00 29 1008.4
20190525063023 50 344 0.9 2.6 0.00 0.00 0.00 31 1008.6
20190525061517 50 0 0.0 1.7 0.00 0.00 0.00 31 1008.8
20190525060022 50 0 0.0 0.9 0.00 0.00 0.00 32 1008.8
20190525054517 49 0 0.0 1.7 0.00 0.00 0.00 34 1009.0
20190525053022 50 344 0.9 2.6 0.00 0.00 0.00 36 1009.1
20190525051517 50 346 0.9 2.6 0.00 0.00 0.00 35 1009.1
20190525050022 51 0 0.0 1.7 0.00 0.00 0.00 32 1009.1
20190525044517 51 0 0.0 1.7 0.00 0.00 0.00 32 1009.1
20190525043022 51 0 0.0 1.7 0.00 0.00 0.00 32 1009.2
20190525041517 52 0 0.0 1.7 0.00 0.00 0.00 35 1009.1
20190525040033 52 0 0.0 2.6 0.00 0.00 0.00 32 1008.4